sensor_id;sensor_type;location;lat;lon;timestamp;temperature;humidity
44817;DHT22;30529;53.570;9.964;2023-02-01T00:00:11;5.60;99.90
44817;DHT22;30529;53.570;9.964;2023-02-01T00:02:38;5.60;99.90
44817;DHT22;30529;53.570;9.964;2023-02-01T00:05:10;5.60;99.90
44817;DHT22;30529;53.570;9.964;2023-02-01T00:07:37;5.70;99.90
44817;DHT22;30529;53.570;9.964;2023-02-01T00:10:04;5.70;99.90
44817;DHT22;30529;53.570;9.964;2023-02-01T00:12:31;5.70;99.90
44817;DHT22;30529;53.570;9.964;2023-02-01T00:14:57;5.70;99.90
44817;DHT22;30529;53.570;9.964;2023-02-01T00:17:24;5.70;99.90
44817;DHT22;30529;53.570;9.964;2023-02-01T00:19:50;5.70;99.90
44817;DHT22;30529;53.570;9.964;2023-02-01T00:22:16;5.70;99.90
44817;DHT22;30529;53.570;9.964;2023-02-01T00:24:42;5.70;99.90
44817;DHT22;30529;53.570;9.964;2023-02-01T00:27:07;5.70;99.90
44817;DHT22;30529;53.570;9.964;2023-02-01T00:29:33;5.70;99.90
44817;DHT22;30529;53.570;9.964;2023-02-01T00:31:59;5.70;99.90
44817;DHT22;30529;53.570;9.964;2023-02-01T00:34:26;5.60;99.90
44817;DHT22;30529;53.570;9.964;2023-02-01T00:36:52;5.70;99.90
44817;DHT22;30529;53.570;9.964;2023-02-01T00:39:18;5.70;99.90
44817;DHT22;30529;53.570;9.964;2023-02-01T00:41:44;5.70;99.90
44817;DHT22;30529;53.570;9.964;2023-02-01T00:44:10;5.80;99.90
44817;DHT22;30529;53.570;9.964;2023-02-01T00:46:36;5.80;99.90
44817;DHT22;30529;53.570;9.964;2023-02-01T00:49:02;5.90;99.90
44817;DHT22;30529;53.570;9.964;2023-02-01T00:51:29;5.90;99.90
44817;DHT22;30529;53.570;9.964;2023-02-01T00:53:56;5.90;99.90
44817;DHT22;30529;53.570;9.964;2023-02-01T00:56:22;6.00;99.90
44817;DHT22;30529;53.570;9.964;2023-02-01T00:58:48;6.00;99.90
44817;DHT22;30529;53.570;9.964;2023-02-01T01:01:20;5.90;99.90
44817;DHT22;30529;53.570;9.964;2023-02-01T01:03:50;5.90;99.90
44817;DHT22;30529;53.570;9.964;2023-02-01T01:06:21;5.90;99.90
44817;DHT22;30529;53.570;9.964;2023-02-01T01:08:50;5.90;99.90
44817;DHT22;30529;53.570;9.964;2023-02-01T01:11:18;5.90;99.90
44817;DHT22;30529;53.570;9.964;2023-02-01T01:13:49;5.90;99.90
44817;DHT22;30529;53.570;9.964;2023-02-01T01:16:17;5.90;99.90
44817;DHT22;30529;53.570;9.964;2023-02-01T01:18:43;5.90;99.90
44817;DHT22;30529;53.570;9.964;2023-02-01T01:21:13;5.90;99.90
44817;DHT22;30529;53.570;9.964;2023-02-01T01:23:39;5.90;99.90
44817;DHT22;30529;53.570;9.964;2023-02-01T01:26:12;5.90;99.90
44817;DHT22;30529;53.570;9.964;2023-02-01T01:28:39;5.90;99.90
44817;DHT22;30529;53.570;9.964;2023-02-01T01:31:09;5.90;99.90
44817;DHT22;30529;53.570;9.964;2023-02-01T01:33:35;5.90;99.90
44817;DHT22;30529;53.570;9.964;2023-02-01T01:36:02;5.90;99.90
44817;DHT22;30529;53.570;9.964;2023-02-01T01:38:29;5.90;99.90
44817;DHT22;30529;53.570;9.964;2023-02-01T01:40:55;5.90;99.90
44817;DHT22;30529;53.570;9.964;2023-02-01T01:43:21;5.90;99.90
44817;DHT22;30529;53.570;9.964;2023-02-01T01:45:49;5.90;99.90
44817;DHT22;30529;53.570;9.964;2023-02-01T01:48:27;6.00;99.90
44817;DHT22;30529;53.570;9.964;2023-02-01T01:50:59;6.00;99.90
44817;DHT22;30529;53.570;9.964;2023-02-01T01:53:31;6.00;99.90
44817;DHT22;30529;53.570;9.964;2023-02-01T01:56:00;6.00;99.90
44817;DHT22;30529;53.570;9.964;2023-02-01T01:58:28;6.10;99.90
44817;DHT22;30529;53.570;9.964;2023-02-01T02:00:55;6.10;99.90
44817;DHT22;30529;53.570;9.964;2023-02-01T02:03:30;6.10;99.90
44817;DHT22;30529;53.570;9.964;2023-02-01T02:06:01;6.00;99.90
44817;DHT22;30529;53.570;9.964;2023-02-01T02:08:28;6.00;99.90
44817;DHT22;30529;53.570;9.964;2023-02-01T02:10:54;6.00;99.90
44817;DHT22;30529;53.570;9.964;2023-02-01T02:13:39;6.00;99.90
44817;DHT22;30529;53.570;9.964;2023-02-01T02:16:16;6.00;99.90
44817;DHT22;30529;53.570;9.964;2023-02-01T02:22:10;6.00;99.90
44817;DHT22;30529;53.570;9.964;2023-02-01T02:24:43;6.00;99.90
44817;DHT22;30529;53.570;9.964;2023-02-01T02:35:46;5.90;99.90
44817;DHT22;30529;53.570;9.964;2023-02-01T02:38:30;5.90;99.90
44817;DHT22;30529;53.570;9.964;2023-02-01T02:41:08;5.90;99.90
44817;DHT22;30529;53.570;9.964;2023-02-01T02:43:47;5.90;99.90
44817;DHT22;30529;53.570;9.964;2023-02-01T02:46:37;5.90;99.90
44817;DHT22;30529;53.570;9.964;2023-02-01T02:49:27;5.90;99.90
44817;DHT22;30529;53.570;9.964;2023-02-01T02:51:58;5.90;99.90
44817;DHT22;30529;53.570;9.964;2023-02-01T02:54:54;5.90;99.90
44817;DHT22;30529;53.570;9.964;2023-02-01T02:57:32;5.90;99.90
44817;DHT22;30529;53.570;9.964;2023-02-01T03:00:20;5.90;99.90
44817;DHT22;30529;53.570;9.964;2023-02-01T03:03:06;5.90;99.90
44817;DHT22;30529;53.570;9.964;2023-02-01T03:05:51;5.90;99.90
44817;DHT22;30529;53.570;9.964;2023-02-01T03:13:37;5.90;99.90
44817;DHT22;30529;53.570;9.964;2023-02-01T03:16:07;5.90;99.90
44817;DHT22;30529;53.570;9.964;2023-02-01T03:19:08;5.90;99.90
44817;DHT22;30529;53.570;9.964;2023-02-01T03:21:38;5.90;99.90
44817;DHT22;30529;53.570;9.964;2023-02-01T03:27:13;5.80;99.90
44817;DHT22;30529;53.570;9.964;2023-02-01T03:32:13;5.70;99.90
44817;DHT22;30529;53.570;9.964;2023-02-01T03:34:39;5.60;99.90
44817;DHT22;30529;53.570;9.964;2023-02-01T03:37:10;5.60;99.90
44817;DHT22;30529;53.570;9.964;2023-02-01T03:39:43;5.60;99.90
44817;DHT22;30529;53.570;9.964;2023-02-01T03:42:18;5.60;99.90
44817;DHT22;30529;53.570;9.964;2023-02-01T03:45:00;5.60;99.90
44817;DHT22;30529;53.570;9.964;2023-02-01T03:47:30;5.60;99.90
44817;DHT22;30529;53.570;9.964;2023-02-01T03:50:04;5.50;99.90
44817;DHT22;30529;53.570;9.964;2023-02-01T03:52:38;5.50;99.90
44817;DHT22;30529;53.570;9.964;2023-02-01T03:55:06;5.40;99.90
44817;DHT22;30529;53.570;9.964;2023-02-01T03:57:37;5.40;99.90
44817;DHT22;30529;53.570;9.964;2023-02-01T04:00:09;5.40;99.90
44817;DHT22;30529;53.570;9.964;2023-02-01T04:02:36;5.40;99.90
44817;DHT22;30529;53.570;9.964;2023-02-01T04:05:02;5.50;99.90
44817;DHT22;30529;53.570;9.964;2023-02-01T04:07:28;5.50;99.90
44817;DHT22;30529;53.570;9.964;2023-02-01T04:09:54;5.50;99.90
44817;DHT22;30529;53.570;9.964;2023-02-01T04:12:20;5.50;99.90
44817;DHT22;30529;53.570;9.964;2023-02-01T04:14:46;5.60;99.90
44817;DHT22;30529;53.570;9.964;2023-02-01T04:17:11;5.60;99.90
44817;DHT22;30529;53.570;9.964;2023-02-01T04:19:37;5.60;99.90
44817;DHT22;30529;53.570;9.964;2023-02-01T04:22:03;5.50;99.90
44817;DHT22;30529;53.570;9.964;2023-02-01T04:24:29;5.60;99.90
44817;DHT22;30529;53.570;9.964;2023-02-01T04:26:55;5.60;99.90
44817;DHT22;30529;53.570;9.964;2023-02-01T04:29:21;5.50;99.90
44817;DHT22;30529;53.570;9.964;2023-02-01T04:31:47;5.50;99.90
44817;DHT22;30529;53.570;9.964;2023-02-01T04:34:15;5.50;99.90
44817;DHT22;30529;53.570;9.964;2023-02-01T04:36:41;5.60;99.90
44817;DHT22;30529;53.570;9.964;2023-02-01T04:39:09;5.50;99.90
44817;DHT22;30529;53.570;9.964;2023-02-01T04:41:35;5.50;99.90
44817;DHT22;30529;53.570;9.964;2023-02-01T04:44:01;5.50;99.90
44817;DHT22;30529;53.570;9.964;2023-02-01T04:46:27;5.50;99.90
44817;DHT22;30529;53.570;9.964;2023-02-01T04:48:53;5.40;99.90
44817;DHT22;30529;53.570;9.964;2023-02-01T04:51:19;5.40;99.90
44817;DHT22;30529;53.570;9.964;2023-02-01T04:53:45;5.40;99.90
44817;DHT22;30529;53.570;9.964;2023-02-01T04:56:11;5.40;99.90
44817;DHT22;30529;53.570;9.964;2023-02-01T04:58:37;5.30;99.90
44817;DHT22;30529;53.570;9.964;2023-02-01T05:01:04;5.30;99.90
44817;DHT22;30529;53.570;9.964;2023-02-01T05:03:32;5.30;99.90
44817;DHT22;30529;53.570;9.964;2023-02-01T05:05:58;5.20;99.90
44817;DHT22;30529;53.570;9.964;2023-02-01T05:08:25;5.20;99.90
44817;DHT22;30529;53.570;9.964;2023-02-01T05:10:52;5.10;99.90
44817;DHT22;30529;53.570;9.964;2023-02-01T05:13:18;5.10;99.90
44817;DHT22;30529;53.570;9.964;2023-02-01T05:16:03;4.90;99.90
44817;DHT22;30529;53.570;9.964;2023-02-01T05:18:29;4.80;99.90
44817;DHT22;30529;53.570;9.964;2023-02-01T05:20:56;4.70;99.90
44817;DHT22;30529;53.570;9.964;2023-02-01T05:23:22;4.50;99.90
44817;DHT22;30529;53.570;9.964;2023-02-01T05:25:48;4.50;99.90
44817;DHT22;30529;53.570;9.964;2023-02-01T05:28:14;4.50;99.90
44817;DHT22;30529;53.570;9.964;2023-02-01T05:30:40;4.40;99.90
44817;DHT22;30529;53.570;9.964;2023-02-01T05:33:05;4.40;99.90
44817;DHT22;30529;53.570;9.964;2023-02-01T05:35:31;4.40;99.90
44817;DHT22;30529;53.570;9.964;2023-02-01T05:37:57;4.40;99.90
44817;DHT22;30529;53.570;9.964;2023-02-01T05:40:23;4.40;99.90
44817;DHT22;30529;53.570;9.964;2023-02-01T05:42:49;4.50;99.90
44817;DHT22;30529;53.570;9.964;2023-02-01T05:45:15;4.40;99.90
44817;DHT22;30529;53.570;9.964;2023-02-01T05:47:41;4.40;99.90
44817;DHT22;30529;53.570;9.964;2023-02-01T05:50:08;4.40;99.90
44817;DHT22;30529;53.570;9.964;2023-02-01T05:52:34;4.30;99.90
44817;DHT22;30529;53.570;9.964;2023-02-01T05:55:00;4.30;99.90
44817;DHT22;30529;53.570;9.964;2023-02-01T05:57:26;4.30;99.90
44817;DHT22;30529;53.570;9.964;2023-02-01T05:59:52;4.20;99.90
44817;DHT22;30529;53.570;9.964;2023-02-01T06:02:18;4.10;99.90
44817;DHT22;30529;53.570;9.964;2023-02-01T06:04:44;4.10;99.90
44817;DHT22;30529;53.570;9.964;2023-02-01T06:07:10;4.10;99.90
44817;DHT22;30529;53.570;9.964;2023-02-01T06:09:36;4.10;99.90
44817;DHT22;30529;53.570;9.964;2023-02-01T06:12:03;4.10;99.90
44817;DHT22;30529;53.570;9.964;2023-02-01T06:14:29;4.20;99.90
44817;DHT22;30529;53.570;9.964;2023-02-01T06:16:55;4.20;99.90
44817;DHT22;30529;53.570;9.964;2023-02-01T06:19:22;4.20;99.90
44817;DHT22;30529;53.570;9.964;2023-02-01T06:21:49;4.30;99.90
44817;DHT22;30529;53.570;9.964;2023-02-01T06:24:15;4.30;99.90
44817;DHT22;30529;53.570;9.964;2023-02-01T06:26:41;4.30;99.90
44817;DHT22;30529;53.570;9.964;2023-02-01T06:29:09;4.40;99.90
44817;DHT22;30529;53.570;9.964;2023-02-01T06:31:35;4.50;99.90
44817;DHT22;30529;53.570;9.964;2023-02-01T06:34:01;4.50;99.90
44817;DHT22;30529;53.570;9.964;2023-02-01T06:36:29;4.50;99.90
44817;DHT22;30529;53.570;9.964;2023-02-01T06:38:58;4.50;99.90
44817;DHT22;30529;53.570;9.964;2023-02-01T06:41:25;4.50;99.90
44817;DHT22;30529;53.570;9.964;2023-02-01T06:43:51;4.60;99.90
44817;DHT22;30529;53.570;9.964;2023-02-01T06:46:17;4.60;99.90
44817;DHT22;30529;53.570;9.964;2023-02-01T06:48:43;4.60;99.90
44817;DHT22;30529;53.570;9.964;2023-02-01T06:51:23;4.60;99.90
44817;DHT22;30529;53.570;9.964;2023-02-01T06:53:49;4.60;99.90
44817;DHT22;30529;53.570;9.964;2023-02-01T06:56:15;4.60;99.90
44817;DHT22;30529;53.570;9.964;2023-02-01T06:58:42;4.60;99.90
44817;DHT22;30529;53.570;9.964;2023-02-01T07:01:09;4.60;99.90
44817;DHT22;30529;53.570;9.964;2023-02-01T07:03:35;4.60;99.90
44817;DHT22;30529;53.570;9.964;2023-02-01T07:06:02;4.60;99.90
44817;DHT22;30529;53.570;9.964;2023-02-01T07:08:30;4.60;99.90
44817;DHT22;30529;53.570;9.964;2023-02-01T07:11:00;4.70;99.90
44817;DHT22;30529;53.570;9.964;2023-02-01T07:13:26;4.70;99.90
44817;DHT22;30529;53.570;9.964;2023-02-01T07:15:52;4.70;99.90
44817;DHT22;30529;53.570;9.964;2023-02-01T07:18:18;4.80;99.90
44817;DHT22;30529;53.570;9.964;2023-02-01T07:20:50;4.80;99.90
44817;DHT22;30529;53.570;9.964;2023-02-01T07:23:16;4.80;99.90
44817;DHT22;30529;53.570;9.964;2023-02-01T07:25:42;4.90;99.90
44817;DHT22;30529;53.570;9.964;2023-02-01T07:28:08;4.90;99.90
44817;DHT22;30529;53.570;9.964;2023-02-01T07:30:34;5.00;99.90
44817;DHT22;30529;53.570;9.964;2023-02-01T07:33:00;5.00;99.90
44817;DHT22;30529;53.570;9.964;2023-02-01T07:35:27;5.00;99.90
44817;DHT22;30529;53.570;9.964;2023-02-01T07:37:54;5.10;99.90
44817;DHT22;30529;53.570;9.964;2023-02-01T07:40:20;5.10;99.90
44817;DHT22;30529;53.570;9.964;2023-02-01T07:42:50;5.20;99.90
44817;DHT22;30529;53.570;9.964;2023-02-01T07:45:16;5.20;99.90
44817;DHT22;30529;53.570;9.964;2023-02-01T07:47:42;5.30;99.90
44817;DHT22;30529;53.570;9.964;2023-02-01T07:50:09;5.30;99.90
44817;DHT22;30529;53.570;9.964;2023-02-01T07:52:35;5.40;99.90
44817;DHT22;30529;53.570;9.964;2023-02-01T07:55:01;5.40;99.90
44817;DHT22;30529;53.570;9.964;2023-02-01T07:57:27;5.50;99.90
44817;DHT22;30529;53.570;9.964;2023-02-01T07:59:53;5.50;99.90
44817;DHT22;30529;53.570;9.964;2023-02-01T08:02:37;5.50;99.90
44817;DHT22;30529;53.570;9.964;2023-02-01T08:05:04;5.50;99.90
44817;DHT22;30529;53.570;9.964;2023-02-01T08:07:31;5.50;99.90
44817;DHT22;30529;53.570;9.964;2023-02-01T08:09:57;5.50;99.90
44817;DHT22;30529;53.570;9.964;2023-02-01T08:12:23;5.60;99.90
44817;DHT22;30529;53.570;9.964;2023-02-01T08:14:49;5.50;99.90
44817;DHT22;30529;53.570;9.964;2023-02-01T08:17:15;5.60;99.90
44817;DHT22;30529;53.570;9.964;2023-02-01T08:19:41;5.60;99.90
44817;DHT22;30529;53.570;9.964;2023-02-01T08:22:07;5.70;99.90
44817;DHT22;30529;53.570;9.964;2023-02-01T08:24:33;5.70;99.90
44817;DHT22;30529;53.570;9.964;2023-02-01T08:27:01;5.80;99.90
44817;DHT22;30529;53.570;9.964;2023-02-01T08:29:28;5.80;99.90
44817;DHT22;30529;53.570;9.964;2023-02-01T08:31:54;5.90;99.90
44817;DHT22;30529;53.570;9.964;2023-02-01T08:34:20;6.10;99.90
44817;DHT22;30529;53.570;9.964;2023-02-01T08:36:46;6.20;99.90
44817;DHT22;30529;53.570;9.964;2023-02-01T08:39:12;6.20;99.90
44817;DHT22;30529;53.570;9.964;2023-02-01T08:41:38;6.10;99.90
44817;DHT22;30529;53.570;9.964;2023-02-01T08:44:04;6.00;99.90
44817;DHT22;30529;53.570;9.964;2023-02-01T08:46:30;6.00;99.90
44817;DHT22;30529;53.570;9.964;2023-02-01T08:48:56;6.00;99.90
44817;DHT22;30529;53.570;9.964;2023-02-01T08:51:23;5.90;99.90
44817;DHT22;30529;53.570;9.964;2023-02-01T08:53:50;5.90;99.90
44817;DHT22;30529;53.570;9.964;2023-02-01T08:56:19;5.90;99.90
44817;DHT22;30529;53.570;9.964;2023-02-01T08:58:45;5.90;99.90
44817;DHT22;30529;53.570;9.964;2023-02-01T09:01:14;5.90;99.90
44817;DHT22;30529;53.570;9.964;2023-02-01T09:03:41;6.00;99.90
44817;DHT22;30529;53.570;9.964;2023-02-01T09:06:10;6.10;99.90
44817;DHT22;30529;53.570;9.964;2023-02-01T09:08:38;6.20;99.90
44817;DHT22;30529;53.570;9.964;2023-02-01T09:11:11;6.30;99.90
44817;DHT22;30529;53.570;9.964;2023-02-01T09:13:37;6.30;99.90
44817;DHT22;30529;53.570;9.964;2023-02-01T09:16:04;6.30;99.90
44817;DHT22;30529;53.570;9.964;2023-02-01T09:18:30;6.30;99.90
44817;DHT22;30529;53.570;9.964;2023-02-01T09:20:56;6.30;99.90
44817;DHT22;30529;53.570;9.964;2023-02-01T09:23:22;6.30;99.90
44817;DHT22;30529;53.570;9.964;2023-02-01T09:25:48;6.30;99.90
44817;DHT22;30529;53.570;9.964;2023-02-01T09:28:18;6.40;99.90
44817;DHT22;30529;53.570;9.964;2023-02-01T09:30:44;6.50;99.90
44817;DHT22;30529;53.570;9.964;2023-02-01T09:33:10;6.50;99.90
44817;DHT22;30529;53.570;9.964;2023-02-01T09:35:36;6.50;99.90
44817;DHT22;30529;53.570;9.964;2023-02-01T09:38:03;6.60;99.90
44817;DHT22;30529;53.570;9.964;2023-02-01T09:40:29;6.60;99.90
44817;DHT22;30529;53.570;9.964;2023-02-01T09:45:50;6.70;99.90
44817;DHT22;30529;53.570;9.964;2023-02-01T09:48:27;6.60;99.90
44817;DHT22;30529;53.570;9.964;2023-02-01T09:50:56;6.70;99.90
44817;DHT22;30529;53.570;9.964;2023-02-01T09:53:32;6.70;99.90
44817;DHT22;30529;53.570;9.964;2023-02-01T09:56:12;6.70;99.90
44817;DHT22;30529;53.570;9.964;2023-02-01T09:58:46;6.70;99.90
44817;DHT22;30529;53.570;9.964;2023-02-01T10:01:31;6.70;99.90
44817;DHT22;30529;53.570;9.964;2023-02-01T10:04:10;6.80;99.90
44817;DHT22;30529;53.570;9.964;2023-02-01T10:12:29;7.00;99.90
44817;DHT22;30529;53.570;9.964;2023-02-01T10:15:28;7.00;99.90
44817;DHT22;30529;53.570;9.964;2023-02-01T10:18:17;7.00;99.90
44817;DHT22;30529;53.570;9.964;2023-02-01T10:20:52;7.10;99.90
44817;DHT22;30529;53.570;9.964;2023-02-01T10:26:24;7.10;99.90
44817;DHT22;30529;53.570;9.964;2023-02-01T10:28:59;7.10;99.90
44817;DHT22;30529;53.570;9.964;2023-02-01T10:31:28;7.10;99.90
44817;DHT22;30529;53.570;9.964;2023-02-01T10:33:58;7.00;99.90
44817;DHT22;30529;53.570;9.964;2023-02-01T10:36:34;6.90;99.90
44817;DHT22;30529;53.570;9.964;2023-02-01T10:39:04;6.90;99.90
44817;DHT22;30529;53.570;9.964;2023-02-01T10:41:36;6.80;99.90
44817;DHT22;30529;53.570;9.964;2023-02-01T10:44:13;6.70;99.90
44817;DHT22;30529;53.570;9.964;2023-02-01T10:46:40;6.60;99.90
44817;DHT22;30529;53.570;9.964;2023-02-01T10:49:13;6.60;99.90
44817;DHT22;30529;53.570;9.964;2023-02-01T10:51:47;6.60;99.90
44817;DHT22;30529;53.570;9.964;2023-02-01T10:54:37;6.60;99.90
44817;DHT22;30529;53.570;9.964;2023-02-01T10:57:08;6.50;99.90
44817;DHT22;30529;53.570;9.964;2023-02-01T10:59:34;6.50;99.90
44817;DHT22;30529;53.570;9.964;2023-02-01T11:02:15;6.50;99.90
44817;DHT22;30529;53.570;9.964;2023-02-01T11:04:41;6.50;99.90
44817;DHT22;30529;53.570;9.964;2023-02-01T11:07:18;6.50;99.90
44817;DHT22;30529;53.570;9.964;2023-02-01T11:09:54;6.50;99.90
44817;DHT22;30529;53.570;9.964;2023-02-01T11:12:33;6.50;99.90
44817;DHT22;30529;53.570;9.964;2023-02-01T11:17:43;6.60;99.90
44817;DHT22;30529;53.570;9.964;2023-02-01T11:20:18;6.60;99.90
44817;DHT22;30529;53.570;9.964;2023-02-01T11:22:52;6.70;99.90
44817;DHT22;30529;53.570;9.964;2023-02-01T11:25:20;6.70;99.90
44817;DHT22;30529;53.570;9.964;2023-02-01T11:27:48;6.80;99.90
44817;DHT22;30529;53.570;9.964;2023-02-01T11:30:16;6.70;99.90
44817;DHT22;30529;53.570;9.964;2023-02-01T11:32:46;6.70;99.90
44817;DHT22;30529;53.570;9.964;2023-02-01T11:35:18;6.80;99.90
44817;DHT22;30529;53.570;9.964;2023-02-01T11:37:52;6.80;99.90
44817;DHT22;30529;53.570;9.964;2023-02-01T11:43:22;6.80;99.90
44817;DHT22;30529;53.570;9.964;2023-02-01T11:46:03;6.80;99.90
44817;DHT22;30529;53.570;9.964;2023-02-01T11:48:31;6.80;99.90
44817;DHT22;30529;53.570;9.964;2023-02-01T11:51:23;6.80;99.90
44817;DHT22;30529;53.570;9.964;2023-02-01T11:59:47;6.70;99.90
44817;DHT22;30529;53.570;9.964;2023-02-01T12:02:41;6.60;99.90
44817;DHT22;30529;53.570;9.964;2023-02-01T12:05:34;6.50;99.90
44817;DHT22;30529;53.570;9.964;2023-02-01T12:08:15;6.40;99.90
44817;DHT22;30529;53.570;9.964;2023-02-01T12:10:53;6.30;99.90
44817;DHT22;30529;53.570;9.964;2023-02-01T12:30:25;6.10;99.90
44817;DHT22;30529;53.570;9.964;2023-02-01T12:33:23;6.00;99.90
44817;DHT22;30529;53.570;9.964;2023-02-01T12:36:15;5.90;99.90
44817;DHT22;30529;53.570;9.964;2023-02-01T12:39:01;5.80;99.90
44817;DHT22;30529;53.570;9.964;2023-02-01T12:41:36;5.80;99.90
44817;DHT22;30529;53.570;9.964;2023-02-01T12:44:46;5.70;99.90
44817;DHT22;30529;53.570;9.964;2023-02-01T12:47:26;5.60;99.90
44817;DHT22;30529;53.570;9.964;2023-02-01T12:49:59;5.60;99.90
44817;DHT22;30529;53.570;9.964;2023-02-01T12:52:54;5.50;99.90
44817;DHT22;30529;53.570;9.964;2023-02-01T12:55:33;5.50;99.90
44817;DHT22;30529;53.570;9.964;2023-02-01T13:00:43;5.50;99.90
44817;DHT22;30529;53.570;9.964;2023-02-01T13:06:07;5.50;99.90
44817;DHT22;30529;53.570;9.964;2023-02-01T13:08:46;5.50;99.90
44817;DHT22;30529;53.570;9.964;2023-02-01T13:11:22;5.50;99.90
44817;DHT22;30529;53.570;9.964;2023-02-01T13:14:10;5.50;99.90
44817;DHT22;30529;53.570;9.964;2023-02-01T13:16:42;5.50;99.90
44817;DHT22;30529;53.570;9.964;2023-02-01T13:19:22;5.60;99.90
44817;DHT22;30529;53.570;9.964;2023-02-01T13:21:54;5.70;99.90
44817;DHT22;30529;53.570;9.964;2023-02-01T13:26:56;5.80;99.90
44817;DHT22;30529;53.570;9.964;2023-02-01T13:29:23;5.90;99.90
44817;DHT22;30529;53.570;9.964;2023-02-01T13:43:06;5.90;99.90
44817;DHT22;30529;53.570;9.964;2023-02-01T13:45:37;6.00;99.90
44817;DHT22;30529;53.570;9.964;2023-02-01T13:48:21;5.90;99.90
44817;DHT22;30529;53.570;9.964;2023-02-01T13:50:54;6.00;99.90
44817;DHT22;30529;53.570;9.964;2023-02-01T13:53:33;6.10;99.90
44817;DHT22;30529;53.570;9.964;2023-02-01T13:56:08;6.10;99.90
44817;DHT22;30529;53.570;9.964;2023-02-01T13:58:41;6.10;99.90
44817;DHT22;30529;53.570;9.964;2023-02-01T14:04:00;6.20;99.90
44817;DHT22;30529;53.570;9.964;2023-02-01T14:17:29;6.80;99.90
44817;DHT22;30529;53.570;9.964;2023-02-01T14:19:33;7.00;99.90
44817;DHT22;30529;53.570;9.964;2023-02-01T14:24:52;7.00;99.90
44817;DHT22;30529;53.570;9.964;2023-02-01T14:27:28;6.80;99.90
44817;DHT22;30529;53.570;9.964;2023-02-01T14:30:00;6.60;99.90
44817;DHT22;30529;53.570;9.964;2023-02-01T14:32:37;6.50;99.90
44817;DHT22;30529;53.570;9.964;2023-02-01T14:35:28;6.30;99.90
44817;DHT22;30529;53.570;9.964;2023-02-01T14:37:59;6.20;99.90
44817;DHT22;30529;53.570;9.964;2023-02-01T14:40:28;6.00;99.90
44817;DHT22;30529;53.570;9.964;2023-02-01T14:42:55;5.80;99.90
44817;DHT22;30529;53.570;9.964;2023-02-01T14:58:13;5.60;99.90
44817;DHT22;30529;53.570;9.964;2023-02-01T15:01:02;5.50;99.90
44817;DHT22;30529;53.570;9.964;2023-02-01T15:03:43;5.50;99.90
44817;DHT22;30529;53.570;9.964;2023-02-01T15:06:26;5.50;99.90
44817;DHT22;30529;53.570;9.964;2023-02-01T15:08:56;5.50;99.90
44817;DHT22;30529;53.570;9.964;2023-02-01T15:11:23;5.60;99.90
44817;DHT22;30529;53.570;9.964;2023-02-01T15:13:53;5.60;99.90
44817;DHT22;30529;53.570;9.964;2023-02-01T15:16:25;5.60;99.90
44817;DHT22;30529;53.570;9.964;2023-02-01T15:19:07;5.70;99.90
44817;DHT22;30529;53.570;9.964;2023-02-01T15:21:44;5.60;99.90
44817;DHT22;30529;53.570;9.964;2023-02-01T15:24:13;5.60;99.90
44817;DHT22;30529;53.570;9.964;2023-02-01T15:26:40;5.50;99.90
44817;DHT22;30529;53.570;9.964;2023-02-01T15:29:11;5.50;99.90
44817;DHT22;30529;53.570;9.964;2023-02-01T15:31:49;5.40;99.90
44817;DHT22;30529;53.570;9.964;2023-02-01T15:34:16;5.30;99.90
44817;DHT22;30529;53.570;9.964;2023-02-01T15:36:43;5.30;99.90
44817;DHT22;30529;53.570;9.964;2023-02-01T15:41:49;5.30;99.90
44817;DHT22;30529;53.570;9.964;2023-02-01T15:44:18;5.30;99.90
44817;DHT22;30529;53.570;9.964;2023-02-01T15:46:47;5.30;99.90
44817;DHT22;30529;53.570;9.964;2023-02-01T15:49:29;5.30;99.90
44817;DHT22;30529;53.570;9.964;2023-02-01T15:52:01;5.40;99.90
44817;DHT22;30529;53.570;9.964;2023-02-01T15:54:58;5.30;99.90
44817;DHT22;30529;53.570;9.964;2023-02-01T15:57:28;5.40;99.90
44817;DHT22;30529;53.570;9.964;2023-02-01T16:00:24;5.40;99.90
44817;DHT22;30529;53.570;9.964;2023-02-01T16:05:42;5.40;99.90
44817;DHT22;30529;53.570;9.964;2023-02-01T16:08:13;5.30;99.90
44817;DHT22;30529;53.570;9.964;2023-02-01T16:10:47;5.40;99.90
44817;DHT22;30529;53.570;9.964;2023-02-01T16:13:15;5.40;99.90
44817;DHT22;30529;53.570;9.964;2023-02-01T16:15:41;5.40;99.90
44817;DHT22;30529;53.570;9.964;2023-02-01T16:18:08;5.40;99.90
44817;DHT22;30529;53.570;9.964;2023-02-01T16:20:40;5.40;99.90
44817;DHT22;30529;53.570;9.964;2023-02-01T16:23:08;5.40;99.90
44817;DHT22;30529;53.570;9.964;2023-02-01T16:25:34;5.40;99.90
44817;DHT22;30529;53.570;9.964;2023-02-01T16:28:01;5.50;99.90
44817;DHT22;30529;53.570;9.964;2023-02-01T16:30:27;5.50;99.90
44817;DHT22;30529;53.570;9.964;2023-02-01T16:33:00;5.50;99.90
44817;DHT22;30529;53.570;9.964;2023-02-01T16:35:34;5.50;99.90
44817;DHT22;30529;53.570;9.964;2023-02-01T16:38:08;5.50;99.90
44817;DHT22;30529;53.570;9.964;2023-02-01T16:40:42;5.50;99.90
44817;DHT22;30529;53.570;9.964;2023-02-01T16:45:42;5.50;99.90
44817;DHT22;30529;53.570;9.964;2023-02-01T16:48:24;5.50;99.90
44817;DHT22;30529;53.570;9.964;2023-02-01T16:50:54;5.60;99.90
44817;DHT22;30529;53.570;9.964;2023-02-01T16:53:22;5.50;99.90
44817;DHT22;30529;53.570;9.964;2023-02-01T16:55:48;5.50;99.90
44817;DHT22;30529;53.570;9.964;2023-02-01T16:58:19;5.40;99.90
44817;DHT22;30529;53.570;9.964;2023-02-01T17:00:47;5.40;99.90
44817;DHT22;30529;53.570;9.964;2023-02-01T17:03:14;5.50;99.90
44817;DHT22;30529;53.570;9.964;2023-02-01T17:05:48;5.60;99.90
44817;DHT22;30529;53.570;9.964;2023-02-01T17:08:25;5.60;99.90
44817;DHT22;30529;53.570;9.964;2023-02-01T17:10:53;5.70;99.90
44817;DHT22;30529;53.570;9.964;2023-02-01T17:13:19;5.70;99.90
44817;DHT22;30529;53.570;9.964;2023-02-01T17:16:02;5.70;99.90
44817;DHT22;30529;53.570;9.964;2023-02-01T17:18:32;5.70;99.90
44817;DHT22;30529;53.570;9.964;2023-02-01T17:21:10;5.70;99.90
44817;DHT22;30529;53.570;9.964;2023-02-01T17:23:39;5.80;99.90
44817;DHT22;30529;53.570;9.964;2023-02-01T17:26:10;5.80;99.90
44817;DHT22;30529;53.570;9.964;2023-02-01T17:28:37;5.80;99.90
44817;DHT22;30529;53.570;9.964;2023-02-01T17:31:04;5.90;99.90
44817;DHT22;30529;53.570;9.964;2023-02-01T17:33:36;5.90;99.90
44817;DHT22;30529;53.570;9.964;2023-02-01T17:36:04;5.90;99.90
44817;DHT22;30529;53.570;9.964;2023-02-01T17:38:32;6.00;99.90
44817;DHT22;30529;53.570;9.964;2023-02-01T17:40:59;5.90;99.90
44817;DHT22;30529;53.570;9.964;2023-02-01T17:43:25;5.90;99.90
44817;DHT22;30529;53.570;9.964;2023-02-01T17:45:59;5.90;99.90
44817;DHT22;30529;53.570;9.964;2023-02-01T17:48:26;5.90;99.90
44817;DHT22;30529;53.570;9.964;2023-02-01T17:50:52;5.90;99.90
44817;DHT22;30529;53.570;9.964;2023-02-01T17:53:24;6.00;99.90
44817;DHT22;30529;53.570;9.964;2023-02-01T17:55:51;6.00;99.90
44817;DHT22;30529;53.570;9.964;2023-02-01T17:58:17;6.00;99.90
44817;DHT22;30529;53.570;9.964;2023-02-01T18:00:54;6.00;99.90
44817;DHT22;30529;53.570;9.964;2023-02-01T18:03:30;6.00;99.90
44817;DHT22;30529;53.570;9.964;2023-02-01T18:05:57;6.00;99.90